Time;durP1;ratioP1;P1;durP2;ratioP2;P2;SDS_P1;SDS_P2;PMS_P1;PMS_P2;Temp;Humidity;BMP_temperature;BMP_pressure;BME280_temperature;BME280_humidity;BME280_pressure;Samples;Min_cycle;Max_cycle;Signal;HPM_P1;HPM_P2
2022/01/06 00:01:02;;;;;;;34.42;9.27;;;28.20;71.50;;;;;;5028206;28;20021;-53
2022/01/06 00:03:31;;;;;;;23.58;8.88;;;28.20;71.50;;;;;;5044760;28;20326;-55
2022/01/06 00:06:03;;;;;;;51.97;10.48;;;28.20;71.40;;;;;;5048216;28;20075;-49
2022/01/06 00:08:29;;;;;;;48.63;10.02;;;28.10;71.40;;;;;;5056913;28;20033;-47
2022/01/06 00:10:56;;;;;;;31.38;9.40;;;28.10;71.40;;;;;;5063766;28;20028;-47
2022/01/06 00:13:32;;;;;;;30.35;8.75;;;28.10;71.40;;;;;;5058833;28;20238;-50
2022/01/06 00:16:16;;;;;;;19.23;8.77;;;28.10;71.40;;;;;;5063844;28;20013;-50
2022/01/06 00:24:21;;;;;;;19.02;8.73;;;28.10;71.30;;;;;;5064833;28;20051;-49
2022/01/06 00:26:48;;;;;;;24.70;8.88;;;28.10;71.20;;;;;;5063816;28;20021;-46
2022/01/06 00:29:16;;;;;;;24.38;9.13;;;28.10;71.00;;;;;;5063164;28;20130;-47
2022/01/06 00:31:42;;;;;;;22.00;8.50;;;28.10;70.90;;;;;;5063205;28;20033;-50
2022/01/06 00:34:10;;;;;;;17.30;8.25;;;28.10;70.90;;;;;;5063700;28;20300;-45
2022/01/06 00:36:41;;;;;;;19.25;8.32;;;28.20;71.00;;;;;;5063072;28;20021;-47
2022/01/06 00:39:11;;;;;;;18.35;8.40;;;28.20;70.80;;;;;;5064324;28;20056;-50
2022/01/06 00:41:38;;;;;;;17.80;8.35;;;28.20;70.70;;;;;;5064000;28;20017;-51
2022/01/06 00:44:06;;;;;;;13.85;8.10;;;28.20;70.70;;;;;;5064793;28;20032;-48
2022/01/06 00:46:33;;;;;;;23.55;13.02;;;28.20;70.70;;;;;;5063276;28;20032;-47
2022/01/06 00:49:00;;;;;;;18.73;12.43;;;28.10;70.50;;;;;;5064292;28;20057;-50
2022/01/06 00:51:26;;;;;;;17.35;10.90;;;28.10;70.60;;;;;;5064461;28;20021;-48
2022/01/06 00:54:06;;;;;;;23.00;10.80;;;28.10;70.60;;;;;;5063601;28;20039;-46
2022/01/06 00:56:34;;;;;;;16.85;11.50;;;28.10;70.60;;;;;;5064444;28;20043;-51
2022/01/06 00:59:03;;;;;;;27.67;11.57;;;28.10;70.40;;;;;;5064164;28;20025;-50
2022/01/06 01:01:31;;;;;;;23.58;9.75;;;28.10;70.40;;;;;;5062952;28;20086;-44
2022/01/06 01:04:01;;;;;;;33.15;10.95;;;28.10;70.30;;;;;;5063014;28;20025;-50
2022/01/06 01:06:27;;;;;;;24.50;10.40;;;28.10;70.40;;;;;;5063067;28;20052;-49
2022/01/06 01:08:57;;;;;;;56.92;11.05;;;28.10;70.40;;;;;;5063900;28;20025;-50
2022/01/06 01:11:24;;;;;;;28.25;10.25;;;28.10;70.60;;;;;;5064101;28;20025;-48
2022/01/06 01:14:07;;;;;;;22.45;9.25;;;28.10;70.70;;;;;;5063899;28;20021;-47
2022/01/06 01:16:35;;;;;;;34.50;11.45;;;28.10;70.70;;;;;;5062500;28;20128;-49
2022/01/06 01:19:08;;;;;;;26.05;11.48;;;28.00;71.10;;;;;;5063815;28;20053;-44
2022/01/06 01:21:35;;;;;;;31.77;11.88;;;28.00;70.70;;;;;;5062493;28;20203;-48
2022/01/06 01:24:02;;;;;;;34.00;12.35;;;28.00;70.70;;;;;;5064145;28;20134;-49
2022/01/06 01:26:28;;;;;;;72.53;14.00;;;28.00;70.70;;;;;;5062580;28;20025;-46
2022/01/06 01:28:55;;;;;;;36.70;12.05;;;28.00;70.60;;;;;;5063923;28;20071;-51
2022/01/06 01:31:30;;;;;;;34.55;9.80;;;28.00;70.60;;;;;;5062648;28;20029;-54
2022/01/06 01:33:59;;;;;;;29.40;9.77;;;28.00;70.70;;;;;;5062571;28;20025;-54
2022/01/06 01:36:26;;;;;;;28.75;9.77;;;28.00;70.70;;;;;;5062368;28;20082;-46
2022/01/06 01:38:53;;;;;;;25.90;9.70;;;28.00;70.70;;;;;;5063994;28;20070;-51
2022/01/06 01:41:20;;;;;;;82.32;11.57;;;28.00;70.80;;;;;;5063578;28;20032;-54
2022/01/06 01:43:47;;;;;;;29.10;9.27;;;27.90;70.70;;;;;;5062670;28;20032;-52
2022/01/06 01:46:17;;;;;;;37.58;10.25;;;27.90;70.80;;;;;;5063614;28;20040;-50
2022/01/06 01:48:52;;;;;;;28.83;10.45;;;27.90;71.00;;;;;;5062489;28;20083;-45
2022/01/06 01:51:20;;;;;;;26.00;9.38;;;27.90;71.10;;;;;;5046984;28;20048;-48
2022/01/06 01:53:53;;;;;;;21.55;9.55;;;27.90;71.10;;;;;;5063675;28;20021;-50
2022/01/06 01:56:22;;;;;;;27.70;9.88;;;27.90;71.20;;;;;;5063768;28;20017;-49
2022/01/06 01:58:54;;;;;;;23.35;9.35;;;27.90;71.20;;;;;;5062599;28;20033;-48
2022/01/06 02:01:21;;;;;;;26.27;10.40;;;27.80;71.00;;;;;;5062812;28;20048;-53
2022/01/06 02:03:48;;;;;;;25.48;10.15;;;27.80;70.90;;;;;;5063983;28;20052;-48
2022/01/06 02:06:15;;;;;;;25.67;9.25;;;27.80;71.00;;;;;;5067862;28;20016;-48
2022/01/06 02:08:46;;;;;;;22.55;9.77;;;27.80;70.90;;;;;;5068045;28;20048;-53
2022/01/06 02:11:13;;;;;;;32.35;11.43;;;27.80;70.90;;;;;;5067567;28;20013;-45
2022/01/06 02:13:51;;;;;;;21.33;9.93;;;27.80;70.80;;;;;;5066890;28;20036;-48
2022/01/06 02:16:25;;;;;;;22.67;9.77;;;27.80;70.50;;;;;;5067292;28;20028;-49
2022/01/06 02:18:53;;;;;;;24.52;9.50;;;27.70;70.30;;;;;;5067471;28;20036;-48
2022/01/06 02:21:20;;;;;;;22.20;10.07;;;27.80;70.00;;;;;;5067124;28;20020;-51
2022/01/06 02:23:48;;;;;;;24.40;9.32;;;27.70;69.50;;;;;;5067149;28;20035;-49
2022/01/06 02:26:16;;;;;;;17.33;8.50;;;27.70;68.90;;;;;;5067155;28;20027;-47
2022/01/06 02:28:44;;;;;;;15.85;8.02;;;27.70;68.90;;;;;;5066153;28;20135;-54
2022/01/06 02:31:11;;;;;;;17.98;7.47;;;27.70;68.50;;;;;;5066809;28;20265;-48
2022/01/06 02:33:39;;;;;;;19.30;7.53;;;27.70;67.90;;;;;;5067297;28;20025;-49
2022/01/06 02:36:07;;;;;;;24.05;8.52;;;27.70;67.50;;;;;;5066091;28;20059;-47
2022/01/06 02:38:38;;;;;;;39.55;9.55;;;27.70;67.10;;;;;;5067731;28;20048;-55
2022/01/06 02:41:04;;;;;;;154.10;19.95;;;27.70;66.50;;;;;;5066850;28;20044;-54
2022/01/06 02:43:31;;;;;;;57.03;11.32;;;27.70;66.10;;;;;;5066643;28;20024;-45
2022/01/06 02:45:58;;;;;;;37.10;9.52;;;27.70;65.80;;;;;;5066282;28;20053;-47
2022/01/06 02:48:25;;;;;;;38.58;9.30;;;27.60;65.30;;;;;;5066165;28;20025;-43
2022/01/06 02:50:52;;;;;;;34.97;8.57;;;27.70;65.20;;;;;;5066419;28;20020;-46
2022/01/06 02:53:20;;;;;;;31.45;8.70;;;27.60;64.90;;;;;;5064938;28;20020;-49
2022/01/06 02:55:53;;;;;;;34.80;8.00;;;27.60;64.70;;;;;;5066580;28;20016;-51
2022/01/06 02:58:22;;;;;;;31.63;8.35;;;27.60;64.40;;;;;;5059682;28;20052;-46
2022/01/06 03:00:50;;;;;;;31.42;8.18;;;27.50;65.50;;;;;;5061957;28;20414;-48
2022/01/06 03:03:17;;;;;;;29.08;8.15;;;27.50;65.00;;;;;;5034383;28;20024;-51
2022/01/06 03:05:44;;;;;;;21.33;7.60;;;27.50;64.90;;;;;;5060216;28;20017;-52
2022/01/06 03:08:11;;;;;;;23.83;7.63;;;27.50;64.80;;;;;;5056982;28;20037;-51
2022/01/06 03:10:42;;;;;;;22.33;6.95;;;27.50;64.80;;;;;;5054626;28;20020;-46
2022/01/06 03:13:09;;;;;;;19.77;7.18;;;27.50;64.70;;;;;;5061653;28;20013;-47
2022/01/06 03:15:37;;;;;;;15.77;6.78;;;27.50;64.70;;;;;;5053125;28;20025;-53
2022/01/06 03:18:03;;;;;;;14.60;7.03;;;27.50;64.60;;;;;;5065599;28;20037;-55
2022/01/06 03:20:34;;;;;;;15.30;6.88;;;27.40;64.50;;;;;;5065967;28;20017;-55
2022/01/06 03:23:01;;;;;;;14.65;6.72;;;27.40;64.50;;;;;;5048085;28;20191;-52
2022/01/06 03:25:31;;;;;;;23.30;7.68;;;27.40;64.50;;;;;;5066394;28;20048;-47
2022/01/06 03:27:57;;;;;;;14.35;6.78;;;27.40;64.50;;;;;;5048368;28;20139;-53
2022/01/06 03:30:24;;;;;;;15.38;7.28;;;27.40;64.60;;;;;;5065179;28;20017;-51
2022/01/06 03:32:52;;;;;;;10.63;6.55;;;27.30;64.60;;;;;;5060085;28;20048;-54
2022/01/06 03:35:21;;;;;;;14.45;6.70;;;27.40;64.60;;;;;;5037900;28;20021;-52
2022/01/06 03:37:48;;;;;;;11.75;6.82;;;27.40;64.60;;;;;;5056651;28;20301;-53
2022/01/06 03:40:16;;;;;;;12.18;6.30;;;27.40;64.30;;;;;;5043223;28;20033;-50
2022/01/06 03:42:52;;;;;;;12.88;6.53;;;27.40;64.20;;;;;;5048129;28;20024;-49
2022/01/06 03:45:19;;;;;;;13.25;7.10;;;27.40;63.80;;;;;;5066198;28;20090;-53
2022/01/06 03:47:46;;;;;;;10.55;6.68;;;27.40;63.60;;;;;;5065718;28;20017;-52
2022/01/06 03:50:15;;;;;;;11.93;6.85;;;27.40;63.30;;;;;;5065248;28;20025;-63
2022/01/06 03:52:43;;;;;;;19.45;7.03;;;27.40;63.00;;;;;;5065733;28;20017;-47
2022/01/06 03:55:12;;;;;;;9.00;6.13;;;27.40;62.80;;;;;;5065410;28;20044;-57
2022/01/06 03:57:39;;;;;;;11.30;6.55;;;27.30;62.40;;;;;;5065422;28;20063;-55
2022/01/06 04:00:08;;;;;;;8.38;6.25;;;27.30;62.30;;;;;;5065222;28;20027;-52
2022/01/06 04:02:35;;;;;;;8.93;5.93;;;27.30;62.20;;;;;;5065014;28;20025;-51
2022/01/06 04:05:03;;;;;;;8.23;6.25;;;27.30;62.00;;;;;;5065042;28;20032;-50
2022/01/06 04:07:29;;;;;;;10.25;6.55;;;27.20;61.90;;;;;;5069078;28;20021;-50
2022/01/06 04:09:56;;;;;;;7.30;6.05;;;27.20;61.60;;;;;;5065484;28;20013;-48
2022/01/06 04:12:23;;;;;;;10.82;5.90;;;27.20;61.60;;;;;;5065784;28;20101;-47
2022/01/06 04:14:50;;;;;;;6.93;5.82;;;27.20;61.50;;;;;;5065184;28;20017;-49
2022/01/06 04:17:17;;;;;;;9.80;5.68;;;27.20;61.50;;;;;;5065589;28;20021;-51
2022/01/06 04:19:44;;;;;;;7.10;5.47;;;27.10;61.40;;;;;;5064576;28;20282;-46
2022/01/06 04:22:14;;;;;;;10.82;5.72;;;27.10;61.30;;;;;;5047293;28;20048;-47
2022/01/06 04:24:40;;;;;;;8.60;5.47;;;27.10;61.20;;;;;;5064665;28;20092;-52
2022/01/06 04:27:07;;;;;;;7.97;5.35;;;27.00;61.20;;;;;;5064385;28;20264;-49
2022/01/06 04:29:34;;;;;;;10.10;6.10;;;27.10;61.00;;;;;;5030863;28;20033;-50
2022/01/06 04:32:01;;;;;;;7.68;5.82;;;27.10;60.80;;;;;;5064473;28;20106;-51
2022/01/06 04:34:27;;;;;;;6.80;5.45;;;27.10;60.60;;;;;;5064363;28;20023;-51
2022/01/06 04:36:56;;;;;;;6.18;5.22;;;27.10;60.20;;;;;;5064545;28;20020;-50
2022/01/06 04:39:23;;;;;;;9.10;5.70;;;27.10;60.00;;;;;;5063698;28;20025;-54
2022/01/06 04:41:50;;;;;;;5.90;5.20;;;27.10;59.80;;;;;;5064206;28;20520;-46
2022/01/06 04:44:16;;;;;;;8.38;5.63;;;27.10;59.60;;;;;;5064233;28;20033;-46
2022/01/06 04:46:44;;;;;;;7.18;5.43;;;27.10;59.40;;;;;;5062892;28;20063;-49
2022/01/06 04:49:10;;;;;;;5.55;5.03;;;27.10;59.30;;;;;;5064563;28;20028;-51
2022/01/06 04:51:37;;;;;;;8.75;5.22;;;27.10;59.20;;;;;;5064056;28;20021;-48
2022/01/06 04:54:04;;;;;;;7.75;5.32;;;27.10;59.20;;;;;;5064410;28;20302;-54
2022/01/06 04:56:36;;;;;;;7.28;5.15;;;27.10;59.10;;;;;;5063974;28;20023;-59
2022/01/06 04:59:08;;;;;;;10.70;5.57;;;27.10;59.00;;;;;;5064506;28;20029;-47
2022/01/06 05:01:35;;;;;;;;;;;27.10;58.80;;;;;;5064736;28;20309;-48
2022/01/06 05:04:02;;;;;;;7.53;5.10;;;27.00;58.70;;;;;;5063834;28;19944;-51
2022/01/06 05:06:28;;;;;;;7.82;5.07;;;26.90;58.80;;;;;;5063951;28;20017;-52
2022/01/06 05:08:55;;;;;;;8.60;5.10;;;26.90;58.70;;;;;;5063801;28;20033;-50
2022/01/06 05:11:22;;;;;;;7.47;5.30;;;26.90;58.70;;;;;;5064254;28;20021;-47
2022/01/06 05:13:50;;;;;;;8.70;5.20;;;26.90;58.60;;;;;;5064566;28;20025;-54
2022/01/06 05:16:17;;;;;;;7.18;5.18;;;26.90;58.50;;;;;;5063826;28;20021;-50
2022/01/06 05:18:44;;;;;;;6.82;5.00;;;26.90;58.50;;;;;;5062926;28;20040;-46
2022/01/06 05:21:11;;;;;;;8.32;5.13;;;26.90;58.40;;;;;;5063906;28;20013;-52
2022/01/06 05:23:39;;;;;;;6.93;4.75;;;26.90;58.40;;;;;;5064156;28;20233;-53
2022/01/06 05:26:05;;;;;;;6.25;4.80;;;26.90;58.40;;;;;;5063800;28;20045;-45
2022/01/06 05:28:32;;;;;;;7.63;4.90;;;26.90;58.40;;;;;;5064124;28;20025;-48
2022/01/06 05:30:59;;;;;;;9.40;5.30;;;26.90;58.50;;;;;;5063510;28;20021;-51
2022/01/06 05:33:26;;;;;;;7.70;4.70;;;26.90;58.30;;;;;;5062373;28;20053;-53
2022/01/06 05:35:53;;;;;;;9.05;4.78;;;26.90;58.10;;;;;;5060539;28;20096;-52
2022/01/06 05:38:20;;;;;;;8.90;4.82;;;26.90;58.00;;;;;;5062466;28;20118;-47
2022/01/06 05:40:47;;;;;;;7.40;4.93;;;26.90;58.00;;;;;;5069721;28;20040;-52
2022/01/06 05:43:13;;;;;;;6.38;4.53;;;26.90;57.90;;;;;;5070477;28;20170;-51
2022/01/06 05:45:40;;;;;;;8.38;4.97;;;26.90;57.80;;;;;;5070544;28;20305;-55
2022/01/06 05:48:07;;;;;;;6.82;4.75;;;26.80;57.70;;;;;;5069165;28;20217;-54
2022/01/06 05:50:33;;;;;;;7.00;4.72;;;26.80;57.80;;;;;;5069609;28;20344;-55
2022/01/06 05:53:00;;;;;;;5.20;4.55;;;26.80;57.80;;;;;;5070598;28;20047;-52
2022/01/06 05:55:27;;;;;;;8.10;4.75;;;26.80;57.80;;;;;;5070323;28;20044;-58
2022/01/06 05:57:54;;;;;;;6.30;4.30;;;26.70;57.80;;;;;;5070459;28;20302;-49
2022/01/06 06:00:20;;;;;;;5.50;4.30;;;26.80;58.00;;;;;;5070238;28;20016;-52
2022/01/06 06:02:47;;;;;;;6.97;4.20;;;26.70;58.10;;;;;;5070105;28;20197;-48
2022/01/06 06:05:14;;;;;;;5.65;4.28;;;26.70;58.10;;;;;;5068940;28;20027;-54
2022/01/06 06:07:41;;;;;;;8.07;4.80;;;26.70;58.00;;;;;;5069181;28;20084;-52
2022/01/06 06:10:08;;;;;;;8.43;4.55;;;26.70;58.00;;;;;;5070533;28;20036;-48
2022/01/06 06:12:34;;;;;;;10.10;4.47;;;26.70;57.90;;;;;;5069416;28;20355;-49
2022/01/06 06:15:01;;;;;;;6.05;4.38;;;26.70;58.00;;;;;;5070815;28;20029;-52
2022/01/06 06:17:28;;;;;;;5.18;4.40;;;26.70;57.90;;;;;;5069855;28;20013;-48
2022/01/06 06:19:54;;;;;;;6.07;4.25;;;26.70;58.00;;;;;;5068908;28;20064;-57
2022/01/06 06:22:21;;;;;;;6.85;4.10;;;26.70;57.90;;;;;;5070001;28;20013;-50
2022/01/06 06:24:51;;;;;;;6.93;4.43;;;26.60;57.70;;;;;;5070424;28;20120;-50
2022/01/06 06:27:17;;;;;;;7.95;4.38;;;26.60;57.60;;;;;;5068720;28;20017;-47
2022/01/06 06:29:44;;;;;;;5.65;4.00;;;26.60;57.50;;;;;;5068603;28;20033;-57
2022/01/06 06:32:11;;;;;;;6.68;4.28;;;26.60;57.70;;;;;;5069610;28;20033;-52
2022/01/06 06:34:37;;;;;;;7.05;4.30;;;26.60;57.60;;;;;;5069686;28;20032;-50
2022/01/06 06:37:04;;;;;;;7.50;4.20;;;26.60;57.40;;;;;;5069765;28;20016;-50
2022/01/06 06:39:31;;;;;;;5.78;4.15;;;26.60;57.20;;;;;;5069771;28;20096;-53
2022/01/06 06:41:59;;;;;;;6.15;4.05;;;26.60;57.00;;;;;;5068628;28;20049;-49
2022/01/06 06:44:26;;;;;;;4.30;3.38;;;26.60;56.90;;;;;;5068575;28;20066;-49
2022/01/06 06:46:53;;;;;;;4.95;3.67;;;26.60;56.70;;;;;;5069597;28;20021;-47
2022/01/06 06:49:20;;;;;;;5.75;3.78;;;26.60;56.60;;;;;;5069737;28;20071;-48
2022/01/06 06:51:46;;;;;;;6.53;3.88;;;26.60;56.60;;;;;;5066100;28;20017;-52
2022/01/06 06:54:16;;;;;;;6.32;3.70;;;26.60;56.40;;;;;;5066444;28;20025;-51
2022/01/06 06:56:43;;;;;;;6.05;3.15;;;26.60;56.20;;;;;;5066794;28;20021;-50
2022/01/06 06:59:13;;;;;;;5.45;3.72;;;26.60;56.10;;;;;;5066436;28;20275;-53
2022/01/06 07:01:40;;;;;;;5.45;3.80;;;26.60;56.00;;;;;;5066510;28;20024;-49
2022/01/06 07:04:06;;;;;;;4.75;3.50;;;26.60;55.70;;;;;;5066222;28;20021;-56
2022/01/06 07:06:33;;;;;;;8.05;3.70;;;26.60;55.70;;;;;;5065834;28;20036;-51
2022/01/06 07:09:00;;;;;;;6.72;3.92;;;26.60;55.70;;;;;;5066066;28;20101;-47
2022/01/06 07:11:26;;;;;;;5.95;3.47;;;26.60;55.70;;;;;;5064989;28;20017;-48
2022/01/06 07:13:53;;;;;;;6.38;3.38;;;26.60;55.60;;;;;;5065986;28;20032;-48
2022/01/06 07:16:19;;;;;;;7.05;3.53;;;26.50;55.50;;;;;;5065781;28;20017;-47
2022/01/06 07:18:46;;;;;;;4.68;3.45;;;26.60;55.60;;;;;;5065982;28;20032;-48
2022/01/06 07:21:12;;;;;;;5.55;3.65;;;26.50;55.40;;;;;;5065774;28;20119;-53
2022/01/06 07:23:39;;;;;;;6.68;3.45;;;26.50;55.40;;;;;;5065674;28;20094;-49
2022/01/06 07:26:05;;;;;;;5.10;3.65;;;26.50;55.20;;;;;;5065804;28;20029;-54
2022/01/06 07:28:32;;;;;;;5.95;3.22;;;26.50;55.10;;;;;;5065640;28;20075;-46
2022/01/06 07:30:59;;;;;;;5.45;3.22;;;26.50;55.10;;;;;;5065429;28;20016;-55
2022/01/06 07:33:26;;;;;;;4.28;3.33;;;26.50;55.10;;;;;;5065460;28;20048;-48
2022/01/06 07:35:53;;;;;;;4.82;3.55;;;26.50;55.20;;;;;;5065498;28;20029;-57
2022/01/06 07:38:19;;;;;;;6.82;3.17;;;26.50;55.30;;;;;;5065404;28;20021;-51
2022/01/06 07:40:46;;;;;;;6.05;3.70;;;26.50;55.10;;;;;;5065547;28;20025;-48
2022/01/06 07:43:13;;;;;;;4.88;3.58;;;26.50;55.20;;;;;;5065989;28;20021;-49
2022/01/06 07:45:39;;;;;;;4.57;3.30;;;26.50;55.30;;;;;;5065402;28;20067;-52
2022/01/06 07:48:15;;;;;;;4.22;3.45;;;26.50;55.30;;;;;;5065802;28;20082;-48
2022/01/06 07:50:42;;;;;;;4.22;3.22;;;26.40;55.30;;;;;;5065306;28;20254;-53
2022/01/06 07:53:09;;;;;;;4.20;3.20;;;26.40;55.30;;;;;;5065687;28;20074;-50
2022/01/06 07:55:36;;;;;;;4.20;3.33;;;26.40;55.40;;;;;;5065178;28;20033;-46
2022/01/06 07:58:02;;;;;;;4.20;3.30;;;26.40;55.50;;;;;;5065701;28;20316;-46
2022/01/06 08:00:29;;;;;;;3.80;3.03;;;26.40;55.60;;;;;;5065142;28;20037;-51
2022/01/06 08:02:56;;;;;;;4.95;3.30;;;26.40;55.60;;;;;;5065114;28;20021;-47
2022/01/06 08:05:24;;;;;;;4.38;3.25;;;26.40;55.70;;;;;;5065208;28;20351;-50
2022/01/06 08:07:50;;;;;;;4.35;3.17;;;26.40;55.70;;;;;;5065102;28;20332;-50
2022/01/06 08:10:17;;;;;;;4.80;3.33;;;26.40;55.80;;;;;;5061520;28;20029;-47
2022/01/06 08:12:44;;;;;;;4.30;2.83;;;26.30;55.90;;;;;;5065215;28;20302;-50
2022/01/06 08:15:11;;;;;;;4.43;3.00;;;26.30;56.00;;;;;;5064757;28;20025;-52
2022/01/06 08:17:38;;;;;;;3.55;3.03;;;26.30;56.10;;;;;;5064978;28;20090;-50
2022/01/06 08:20:06;;;;;;;6.68;2.92;;;26.30;56.00;;;;;;5064583;28;20052;-46
2022/01/06 08:22:33;;;;;;;3.45;3.10;;;26.30;55.90;;;;;;5064976;28;20028;-54
2022/01/06 08:24:59;;;;;;;3.80;3.03;;;26.30;55.90;;;;;;5064578;28;20054;-47
2022/01/06 08:27:26;;;;;;;3.60;3.00;;;26.30;55.70;;;;;;5064791;28;20028;-54
2022/01/06 08:29:53;;;;;;;5.70;3.10;;;26.30;55.50;;;;;;5064436;28;20321;-47
2022/01/06 08:32:20;;;;;;;5.18;3.15;;;26.30;55.40;;;;;;5064295;28;20284;-54
2022/01/06 08:34:47;;;;;;;3.83;2.95;;;26.30;55.40;;;;;;5064685;28;20302;-48
2022/01/06 08:37:13;;;;;;;4.20;3.10;;;26.30;55.20;;;;;;5064830;28;20175;-50
2022/01/06 08:39:40;;;;;;;4.53;3.13;;;26.30;55.00;;;;;;5064415;28;20078;-54
2022/01/06 08:42:07;;;;;;;4.40;2.88;;;26.30;54.90;;;;;;5064636;28;20017;-57
2022/01/06 08:44:35;;;;;;;5.60;3.28;;;26.30;54.80;;;;;;5064394;28;20036;-46
2022/01/06 08:47:02;;;;;;;9.10;3.20;;;26.30;54.80;;;;;;5064103;28;20080;-50
2022/01/06 08:49:29;;;;;;;5.47;2.72;;;26.30;55.00;;;;;;5064134;28;20033;-47
2022/01/06 08:51:55;;;;;;;4.25;2.78;;;26.20;55.10;;;;;;5064364;28;20024;-55
2022/01/06 08:54:22;;;;;;;4.32;3.20;;;26.20;55.30;;;;;;5064069;28;20047;-48
2022/01/06 08:56:48;;;;;;;7.80;3.20;;;26.20;55.40;;;;;;5064465;28;20013;-50
2022/01/06 08:59:15;;;;;;;5.95;3.25;;;26.10;55.40;;;;;;5064203;28;20260;-45
2022/01/06 09:01:42;;;;;;;4.60;3.15;;;26.10;55.60;;;;;;5064083;28;20052;-48
2022/01/06 09:04:08;;;;;;;6.50;3.28;;;26.10;55.60;;;;;;5064081;28;20035;-47
2022/01/06 09:06:35;;;;;;;4.25;3.13;;;26.10;55.50;;;;;;5064226;28;20027;-46
2022/01/06 09:09:02;;;;;;;3.72;3.13;;;26.10;55.40;;;;;;5063758;28;20032;-48
2022/01/06 09:11:29;;;;;;;4.22;3.03;;;26.00;55.30;;;;;;5063991;28;20343;-52
2022/01/06 09:13:56;;;;;;;3.83;2.90;;;26.00;55.30;;;;;;5063206;28;20029;-48
2022/01/06 09:16:23;;;;;;;3.65;3.00;;;26.00;55.40;;;;;;5063758;28;20020;-51
2022/01/06 09:18:50;;;;;;;5.32;3.40;;;26.00;55.40;;;;;;5064093;28;20032;-47
2022/01/06 09:21:22;;;;;;;4.38;3.15;;;26.00;55.40;;;;;;5063928;28;20033;-50
2022/01/06 09:23:50;;;;;;;8.38;3.00;;;26.00;55.30;;;;;;5063670;28;20328;-46
2022/01/06 09:26:18;;;;;;;4.60;3.35;;;26.00;55.20;;;;;;5063768;28;20025;-48
2022/01/06 09:28:45;;;;;;;16.63;3.70;;;26.00;55.10;;;;;;5063742;28;20040;-53
2022/01/06 09:31:12;;;;;;;12.23;3.30;;;26.00;54.90;;;;;;5063330;28;20020;-50
2022/01/06 09:33:38;;;;;;;8.68;3.10;;;26.00;54.80;;;;;;5063581;28;20071;-46
2022/01/06 09:36:05;;;;;;;7.93;3.40;;;26.00;54.80;;;;;;5063639;28;20158;-53
2022/01/06 09:38:32;;;;;;;9.07;3.60;;;26.00;54.70;;;;;;5063509;28;20328;-50
2022/01/06 09:41:03;;;;;;;6.63;3.28;;;26.00;54.70;;;;;;5063490;28;20085;-50
2022/01/06 09:43:32;;;;;;;10.35;3.05;;;26.00;54.70;;;;;;5063479;28;20062;-46
2022/01/06 09:46:03;;;;;;;11.10;3.90;;;26.00;54.80;;;;;;5063197;28;20021;-53
2022/01/06 09:48:31;;;;;;;11.40;3.70;;;26.00;54.80;;;;;;5063331;28;20017;-52
2022/01/06 09:50:57;;;;;;;7.45;3.53;;;26.00;54.80;;;;;;5063306;28;20046;-47
2022/01/06 09:53:26;;;;;;;9.30;3.25;;;26.00;54.70;;;;;;5063410;28;20021;-48
2022/01/06 09:55:53;;;;;;;6.90;3.75;;;26.00;54.70;;;;;;5063253;28;20225;-47
2022/01/06 09:58:28;;;;;;;6.72;3.72;;;26.00;54.50;;;;;;5063375;28;20017;-51
2022/01/06 10:00:56;;;;;;;8.52;3.92;;;25.90;54.50;;;;;;5063254;28;20333;-54
2022/01/06 10:03:41;;;;;;;9.98;4.00;;;25.80;54.30;;;;;;5063349;28;20020;-48
2022/01/06 10:06:17;;;;;;;8.00;4.28;;;25.80;54.20;;;;;;5063187;28;20017;-53
2022/01/06 10:09:01;;;;;;;9.77;4.40;;;25.80;53.90;;;;;;5063272;28;20093;-53
2022/01/06 10:11:31;;;;;;;14.30;4.47;;;25.80;53.80;;;;;;5063350;28;20021;-58
2022/01/06 10:14:08;;;;;;;16.60;5.25;;;25.70;53.60;;;;;;5063162;28;20021;-49
2022/01/06 10:16:38;;;;;;;12.93;4.88;;;25.80;53.70;;;;;;5063285;28;20214;-48
2022/01/06 10:19:10;;;;;;;11.85;4.97;;;25.80;53.50;;;;;;5063256;28;20025;-47
2022/01/06 10:21:39;;;;;;;11.40;5.03;;;25.80;53.30;;;;;;5063186;28;20301;-53
2022/01/06 10:24:09;;;;;;;9.55;4.88;;;25.80;53.00;;;;;;5063174;28;20025;-46
2022/01/06 10:26:38;;;;;;;11.60;5.50;;;25.80;52.90;;;;;;5066021;28;20029;-51
2022/01/06 10:29:08;;;;;;;9.75;5.57;;;25.80;52.80;;;;;;5066682;28;20028;-52
2022/01/06 10:31:35;;;;;;;11.20;5.43;;;25.80;52.60;;;;;;5066699;28;20037;-53
2022/01/06 10:34:08;;;;;;;16.88;6.13;;;25.80;52.40;;;;;;5066811;28;20246;-47
2022/01/06 10:36:36;;;;;;;11.80;5.78;;;25.80;52.30;;;;;;5066927;28;20021;-47
2022/01/06 10:39:08;;;;;;;13.32;5.60;;;25.80;52.40;;;;;;5066990;28;20209;-48
2022/01/06 10:41:37;;;;;;;12.18;6.47;;;25.80;52.30;;;;;;5066685;28;20052;-47
2022/01/06 10:44:05;;;;;;;10.82;5.90;;;25.80;52.30;;;;;;5066765;28;20036;-53
2022/01/06 10:46:43;;;;;;;17.98;6.30;;;25.80;52.30;;;;;;5066712;28;20029;-49
2022/01/06 10:49:17;;;;;;;15.60;5.90;;;25.80;52.20;;;;;;5066466;28;20037;-56
2022/01/06 10:51:49;;;;;;;15.35;6.13;;;25.80;52.30;;;;;;5066681;28;20051;-53
2022/01/06 10:54:23;;;;;;;17.85;6.13;;;25.80;52.30;;;;;;5066342;28;20028;-52
2022/01/06 10:57:09;;;;;;;13.55;6.35;;;25.70;52.30;;;;;;5066716;28;20245;-54
2022/01/06 10:59:36;;;;;;;21.45;6.57;;;25.60;52.50;;;;;;5066059;28;20051;-51
2022/01/06 11:02:05;;;;;;;18.10;6.72;;;25.60;52.80;;;;;;5066297;28;20040;-48
2022/01/06 11:04:32;;;;;;;13.35;6.95;;;25.60;52.80;;;;;;5066412;28;20070;-48
2022/01/06 11:06:59;;;;;;;16.58;6.75;;;25.60;52.80;;;;;;5066214;28;20052;-55
2022/01/06 11:09:26;;;;;;;16.35;6.50;;;25.60;52.70;;;;;;5066004;28;20033;-52
2022/01/06 11:14:27;;;;;;;17.25;7.65;;;25.70;53.20;;;;;;5065968;28;20066;-47
2022/01/06 11:16:54;;;;;;;15.18;7.20;;;25.60;53.10;;;;;;5065833;28;20025;-55
2022/01/06 11:19:25;;;;;;;14.38;7.43;;;25.70;52.70;;;;;;5065981;28;20229;-55
2022/01/06 11:21:52;;;;;;;18.17;7.90;;;25.70;52.70;;;;;;5066292;28;20017;-51
2022/01/06 11:24:23;;;;;;;17.05;7.35;;;25.60;52.60;;;;;;5065749;28;20025;-50
2022/01/06 11:27:03;;;;;;;32.80;8.70;;;25.60;52.60;;;;;;5065616;28;20021;-50
2022/01/06 11:29:39;;;;;;;34.25;8.57;;;25.60;52.70;;;;;;5065661;28;20033;-54
2022/01/06 11:32:25;;;;;;;22.85;8.85;;;25.60;51.90;;;;;;5065368;28;20045;-45
2022/01/06 11:35:19;;;;;;;20.63;8.80;;;25.60;52.60;;;;;;5065622;28;20028;-49
2022/01/06 11:37:51;;;;;;;26.52;8.55;;;25.60;52.60;;;;;;5065263;28;20088;-52
2022/01/06 11:40:40;;;;;;;20.08;8.18;;;25.60;52.50;;;;;;5065409;28;20070;-48
2022/01/06 11:43:07;;;;;;;22.27;8.20;;;25.60;52.50;;;;;;5065937;28;20037;-47
2022/01/06 11:45:33;;;;;;;24.75;7.75;;;25.70;52.60;;;;;;5065622;28;20084;-49
2022/01/06 11:48:14;;;;;;;24.20;7.93;;;25.70;52.60;;;;;;5065870;28;20048;-45
2022/01/06 11:50:45;;;;;;;18.08;7.20;;;25.70;52.60;;;;;;5063974;28;20025;-49
2022/01/06 11:53:14;;;;;;;17.52;7.47;;;25.70;52.50;;;;;;5064038;28;20365;-54
2022/01/06 11:55:43;;;;;;;17.67;7.93;;;25.70;52.40;;;;;;5063653;28;20025;-45
2022/01/06 11:58:22;;;;;;;18.02;6.97;;;25.70;52.40;;;;;;5064063;28;20066;-48
2022/01/06 12:01:00;;;;;;;24.30;7.97;;;25.80;52.50;;;;;;5063368;28;20105;-49
2022/01/06 12:03:45;;;;;;;17.75;7.55;;;25.80;52.50;;;;;;5063158;28;20025;-48
2022/01/06 12:06:32;;;;;;;27.13;7.60;;;25.80;52.60;;;;;;5064492;28;20041;-50
2022/01/06 12:08:59;;;;;;;24.00;7.47;;;25.80;52.60;;;;;;5064691;28;20024;-48
2022/01/06 12:11:27;;;;;;;22.67;7.30;;;25.80;52.70;;;;;;5065003;28;20048;-47
2022/01/06 12:13:56;;;;;;;24.70;7.07;;;25.80;52.60;;;;;;5064996;28;20021;-49
2022/01/06 12:16:34;;;;;;;16.65;6.70;;;25.80;52.70;;;;;;5064749;28;20021;-44
2022/01/06 12:19:24;;;;;;;18.67;6.35;;;25.80;52.80;;;;;;5064822;28;20207;-43
2022/01/06 12:21:51;;;;;;;18.75;6.72;;;25.90;53.00;;;;;;5065030;28;20025;-45
2022/01/06 12:24:18;;;;;;;23.98;6.07;;;25.90;53.10;;;;;;5064601;28;20028;-46
2022/01/06 12:26:46;;;;;;;19.55;6.45;;;25.90;53.30;;;;;;5064599;28;20032;-50
2022/01/06 12:29:20;;;;;;;19.35;6.43;;;25.90;53.40;;;;;;5064473;28;20043;-48
2022/01/06 12:31:49;;;;;;;18.20;6.05;;;25.90;53.50;;;;;;5064109;28;20079;-46
2022/01/06 12:34:16;;;;;;;18.00;6.30;;;25.90;53.70;;;;;;5064363;28;20087;-43
2022/01/06 12:36:45;;;;;;;26.88;6.40;;;25.90;53.80;;;;;;5064561;28;20021;-44
2022/01/06 12:39:14;;;;;;;21.00;5.75;;;26.00;54.00;;;;;;5064397;28;20344;-46
2022/01/06 12:41:42;;;;;;;20.75;6.10;;;26.00;54.10;;;;;;5064426;28;20064;-45
2022/01/06 12:44:10;;;;;;;15.02;5.65;;;26.00;54.20;;;;;;5064237;28;20021;-43
2022/01/06 12:46:42;;;;;;;16.27;5.18;;;26.00;54.30;;;;;;5064439;28;20302;-44
2022/01/06 12:49:09;;;;;;;;;;;26.10;54.50;;;;;;5063670;28;20041;-46
2022/01/06 12:51:47;;;;;;;12.80;5.15;;;26.00;54.50;;;;;;5064425;28;19909;-47
2022/01/06 12:54:17;;;;;;;13.63;5.63;;;26.10;54.60;;;;;;5063136;28;20017;-50
2022/01/06 12:56:46;;;;;;;14.10;4.88;;;26.10;54.70;;;;;;5063310;28;20309;-46